sensor_id;sensor_type;location;lat;lon;timestamp;pressure;altitude;pressure_sealevel;temperature;humidity
44441;BME280;30146;52.268;20.944;2023-03-04T00:01:58;100041.30;;;2.10;64.38
44441;BME280;30146;52.268;20.944;2023-03-04T00:04:30;100038.25;;;2.10;64.48
44441;BME280;30146;52.268;20.944;2023-03-04T00:07:01;100037.79;;;2.12;64.71
44441;BME280;30146;52.268;20.944;2023-03-04T00:09:32;100036.63;;;2.13;64.38
44441;BME280;30146;52.268;20.944;2023-03-04T00:12:03;100037.64;;;2.14;64.53
44441;BME280;30146;52.268;20.944;2023-03-04T00:14:36;100039.34;;;2.14;64.64
44441;BME280;30146;52.268;20.944;2023-03-04T00:17:07;100037.15;;;2.14;64.47
44441;BME280;30146;52.268;20.944;2023-03-04T00:19:38;100035.62;;;2.13;64.73
44441;BME280;30146;52.268;20.944;2023-03-04T00:22:09;100031.70;;;2.11;64.49
44441;BME280;30146;52.268;20.944;2023-03-04T00:24:41;100023.75;;;2.10;64.61
44441;BME280;30146;52.268;20.944;2023-03-04T00:27:12;100017.00;;;2.09;64.39
44441;BME280;30146;52.268;20.944;2023-03-04T00:29:43;100018.86;;;2.10;64.74
44441;BME280;30146;52.268;20.944;2023-03-04T00:32:14;100011.83;;;2.13;64.74
44441;BME280;30146;52.268;20.944;2023-03-04T00:34:47;100007.27;;;2.13;64.88
44441;BME280;30146;52.268;20.944;2023-03-04T00:37:18;99997.66;;;2.12;64.92
44441;BME280;30146;52.268;20.944;2023-03-04T00:39:49;99990.10;;;2.14;64.73
44441;BME280;30146;52.268;20.944;2023-03-04T00:42:45;99985.72;;;2.14;64.43
44441;BME280;30146;52.268;20.944;2023-03-04T00:45:20;99980.67;;;2.15;64.78
44441;BME280;30146;52.268;20.944;2023-03-04T00:47:51;99982.92;;;2.17;64.91
44441;BME280;30146;52.268;20.944;2023-03-04T00:50:22;99980.42;;;2.20;64.95
44441;BME280;30146;52.268;20.944;2023-03-04T00:52:53;99977.23;;;2.19;64.74
44441;BME280;30146;52.268;20.944;2023-03-04T00:55:25;99972.80;;;2.18;64.53
44441;BME280;30146;52.268;20.944;2023-03-04T00:57:56;99970.44;;;2.18;64.87
44441;BME280;30146;52.268;20.944;2023-03-04T01:00:27;99965.40;;;2.19;64.91
44441;BME280;30146;52.268;20.944;2023-03-04T01:02:58;99962.35;;;2.17;64.72
44441;BME280;30146;52.268;20.944;2023-03-04T01:05:29;99953.06;;;2.17;64.55
44441;BME280;30146;52.268;20.944;2023-03-04T01:08:03;99947.83;;;2.16;64.77
44441;BME280;30146;52.268;20.944;2023-03-04T01:10:34;99944.91;;;2.14;64.66
44441;BME280;30146;52.268;20.944;2023-03-04T01:13:05;99940.69;;;2.13;64.68
44441;BME280;30146;52.268;20.944;2023-03-04T01:15:36;99928.20;;;2.13;64.79
44441;BME280;30146;52.268;20.944;2023-03-04T01:18:07;99933.73;;;2.10;64.63
44441;BME280;30146;52.268;20.944;2023-03-04T01:20:38;99919.70;;;2.08;64.43
44441;BME280;30146;52.268;20.944;2023-03-04T01:23:09;99911.73;;;2.07;64.62
44441;BME280;30146;52.268;20.944;2023-03-04T01:25:40;99901.27;;;2.06;64.67
44441;BME280;30146;52.268;20.944;2023-03-04T01:28:11;99896.48;;;2.02;64.32
44441;BME280;30146;52.268;20.944;2023-03-04T01:30:42;99886.45;;;1.97;64.50
44441;BME280;30146;52.268;20.944;2023-03-04T01:33:14;99869.20;;;1.94;64.63
44441;BME280;30146;52.268;20.944;2023-03-04T01:35:45;99855.02;;;1.93;64.57
44441;BME280;30146;52.268;20.944;2023-03-04T01:38:16;99846.23;;;1.91;64.62
44441;BME280;30146;52.268;20.944;2023-03-04T01:40:47;99851.89;;;1.87;64.51
44441;BME280;30146;52.268;20.944;2023-03-04T01:43:22;99850.84;;;1.85;64.52
44441;BME280;30146;52.268;20.944;2023-03-04T01:45:55;99844.42;;;1.85;64.61
44441;BME280;30146;52.268;20.944;2023-03-04T01:48:29;99838.85;;;1.85;64.91
44441;BME280;30146;52.268;20.944;2023-03-04T01:51:03;99843.27;;;1.86;64.96
44441;BME280;30146;52.268;20.944;2023-03-04T01:53:34;99835.68;;;1.86;64.84
44441;BME280;30146;52.268;20.944;2023-03-04T01:56:14;99829.42;;;1.85;64.90
44441;BME280;30146;52.268;20.944;2023-03-04T01:58:46;99814.41;;;1.84;64.80
44441;BME280;30146;52.268;20.944;2023-03-04T02:01:37;99803.61;;;1.82;64.94
44441;BME280;30146;52.268;20.944;2023-03-04T02:04:09;99800.44;;;1.84;65.22
44441;BME280;30146;52.268;20.944;2023-03-04T02:06:40;99786.30;;;1.85;65.07
44441;BME280;30146;52.268;20.944;2023-03-04T02:09:12;99787.14;;;1.85;65.00
44441;BME280;30146;52.268;20.944;2023-03-04T02:11:43;99803.67;;;1.86;65.06
44441;BME280;30146;52.268;20.944;2023-03-04T02:14:17;99796.48;;;1.89;65.33
44441;BME280;30146;52.268;20.944;2023-03-04T02:16:49;99799.24;;;1.94;65.23
44441;BME280;30146;52.268;20.944;2023-03-04T02:19:33;99798.32;;;1.99;65.44
44441;BME280;30146;52.268;20.944;2023-03-04T02:22:07;99798.05;;;2.02;65.24
44441;BME280;30146;52.268;20.944;2023-03-04T02:24:40;99794.89;;;2.05;65.49
44441;BME280;30146;52.268;20.944;2023-03-04T02:27:11;99792.57;;;2.08;65.35
44441;BME280;30146;52.268;20.944;2023-03-04T02:29:42;99792.27;;;2.10;65.28
44441;BME280;30146;52.268;20.944;2023-03-04T02:32:14;99797.53;;;2.12;65.23
44441;BME280;30146;52.268;20.944;2023-03-04T02:34:48;99802.92;;;2.13;65.12
44441;BME280;30146;52.268;20.944;2023-03-04T02:37:22;99796.51;;;2.11;65.16
44441;BME280;30146;52.268;20.944;2023-03-04T02:39:55;99798.55;;;2.12;65.25
44441;BME280;30146;52.268;20.944;2023-03-04T02:42:26;99795.69;;;2.13;65.56
44441;BME280;30146;52.268;20.944;2023-03-04T02:45:01;99793.37;;;2.16;65.52
44441;BME280;30146;52.268;20.944;2023-03-04T02:47:32;99797.48;;;2.20;65.61
44441;BME280;30146;52.268;20.944;2023-03-04T02:50:03;99793.98;;;2.23;65.51
44441;BME280;30146;52.268;20.944;2023-03-04T02:52:34;99793.72;;;2.27;65.60
44441;BME280;30146;52.268;20.944;2023-03-04T02:55:07;99789.90;;;2.32;65.75
44441;BME280;30146;52.268;20.944;2023-03-04T02:57:39;99786.41;;;2.35;65.73
44441;BME280;30146;52.268;20.944;2023-03-04T03:00:12;99788.33;;;2.39;65.73
44441;BME280;30146;52.268;20.944;2023-03-04T03:02:43;99787.18;;;2.42;65.72
44441;BME280;30146;52.268;20.944;2023-03-04T03:05:15;99784.84;;;2.42;65.46
44441;BME280;30146;52.268;20.944;2023-03-04T03:07:46;99781.30;;;2.43;65.85
44441;BME280;30146;52.268;20.944;2023-03-04T03:10:17;99789.42;;;2.45;65.79
44441;BME280;30146;52.268;20.944;2023-03-04T03:12:49;99781.02;;;2.47;65.54
44441;BME280;30146;52.268;20.944;2023-03-04T03:15:21;99779.19;;;2.49;65.60
44441;BME280;30146;52.268;20.944;2023-03-04T03:17:52;99776.35;;;2.51;65.80
44441;BME280;30146;52.268;20.944;2023-03-04T03:20:23;99771.66;;;2.54;65.82
44441;BME280;30146;52.268;20.944;2023-03-04T03:22:54;99770.17;;;2.56;65.69
44441;BME280;30146;52.268;20.944;2023-03-04T03:25:25;99776.58;;;2.56;65.46
44441;BME280;30146;52.268;20.944;2023-03-04T03:27:57;99771.36;;;2.57;65.67
44441;BME280;30146;52.268;20.944;2023-03-04T03:30:28;99767.48;;;2.57;65.51
44441;BME280;30146;52.268;20.944;2023-03-04T03:32:59;99766.02;;;2.60;65.71
44441;BME280;30146;52.268;20.944;2023-03-04T03:35:30;99765.36;;;2.62;65.39
44441;BME280;30146;52.268;20.944;2023-03-04T03:38:01;99758.48;;;2.65;65.67
44441;BME280;30146;52.268;20.944;2023-03-04T03:40:32;99757.67;;;2.67;65.44
44441;BME280;30146;52.268;20.944;2023-03-04T03:43:03;99751.11;;;2.69;65.65
44441;BME280;30146;52.268;20.944;2023-03-04T03:45:34;99750.13;;;2.71;65.60
44441;BME280;30146;52.268;20.944;2023-03-04T03:48:06;99750.67;;;2.74;65.70
44441;BME280;30146;52.268;20.944;2023-03-04T03:50:37;99744.96;;;2.77;65.50
44441;BME280;30146;52.268;20.944;2023-03-04T03:53:08;99742.13;;;2.79;65.49
44441;BME280;30146;52.268;20.944;2023-03-04T03:55:39;99740.80;;;2.81;65.43
44441;BME280;30146;52.268;20.944;2023-03-04T03:58:10;99740.99;;;2.83;65.43
44441;BME280;30146;52.268;20.944;2023-03-04T04:00:43;99736.46;;;2.86;65.50
44441;BME280;30146;52.268;20.944;2023-03-04T04:03:15;99738.19;;;2.88;65.35
44441;BME280;30146;52.268;20.944;2023-03-04T04:05:47;99735.00;;;2.89;65.40
44441;BME280;30146;52.268;20.944;2023-03-04T04:08:18;99731.30;;;2.92;65.37
44441;BME280;30146;52.268;20.944;2023-03-04T04:10:49;99733.54;;;2.95;65.38
44441;BME280;30146;52.268;20.944;2023-03-04T04:13:20;99732.87;;;2.96;65.34
44441;BME280;30146;52.268;20.944;2023-03-04T04:15:54;99729.35;;;2.97;65.47
44441;BME280;30146;52.268;20.944;2023-03-04T04:18:25;99728.69;;;3.00;65.19
44441;BME280;30146;52.268;20.944;2023-03-04T04:20:56;99725.70;;;3.02;65.12
44441;BME280;30146;52.268;20.944;2023-03-04T04:23:27;99725.69;;;3.03;65.20
44441;BME280;30146;52.268;20.944;2023-03-04T04:25:58;99725.88;;;3.04;65.25
44441;BME280;30146;52.268;20.944;2023-03-04T04:28:29;99725.90;;;3.06;64.89
44441;BME280;30146;52.268;20.944;2023-03-04T04:31:00;99724.09;;;3.10;65.22
44441;BME280;30146;52.268;20.944;2023-03-04T04:33:31;99719.38;;;3.12;65.17
44441;BME280;30146;52.268;20.944;2023-03-04T04:36:03;99716.55;;;3.16;65.05
44441;BME280;30146;52.268;20.944;2023-03-04T04:38:34;99715.58;;;3.19;65.47
44441;BME280;30146;52.268;20.944;2023-03-04T04:41:07;99716.59;;;3.20;65.04
44441;BME280;30146;52.268;20.944;2023-03-04T04:43:44;99711.55;;;3.23;64.99
44441;BME280;30146;52.268;20.944;2023-03-04T04:46:16;99710.73;;;3.26;65.02
44441;BME280;30146;52.268;20.944;2023-03-04T04:48:47;99706.02;;;3.27;64.90
44441;BME280;30146;52.268;20.944;2023-03-04T04:51:18;99711.27;;;3.29;64.70
44441;BME280;30146;52.268;20.944;2023-03-04T04:53:49;99710.26;;;3.29;64.83
44441;BME280;30146;52.268;20.944;2023-03-04T04:56:23;99707.20;;;3.27;64.84
44441;BME280;30146;52.268;20.944;2023-03-04T04:58:57;99706.50;;;3.26;64.63
44441;BME280;30146;52.268;20.944;2023-03-04T05:01:28;99704.50;;;3.27;64.83
44441;BME280;30146;52.268;20.944;2023-03-04T05:03:59;99706.20;;;3.28;64.45
44441;BME280;30146;52.268;20.944;2023-03-04T05:06:30;99702.30;;;3.27;64.62
44441;BME280;30146;52.268;20.944;2023-03-04T05:09:01;99700.81;;;3.30;64.54
44441;BME280;30146;52.268;20.944;2023-03-04T05:11:33;99698.95;;;3.31;64.50
44441;BME280;30146;52.268;20.944;2023-03-04T05:14:04;99699.34;;;3.34;64.52
44441;BME280;30146;52.268;20.944;2023-03-04T05:16:35;99701.72;;;3.36;64.23
44441;BME280;30146;52.268;20.944;2023-03-04T05:19:06;99694.81;;;3.39;64.26
44441;BME280;30146;52.268;20.944;2023-03-04T05:21:38;99691.29;;;3.40;64.20
44441;BME280;30146;52.268;20.944;2023-03-04T05:24:09;99690.59;;;3.39;64.23
44441;BME280;30146;52.268;20.944;2023-03-04T05:26:41;99688.57;;;3.39;63.95
44441;BME280;30146;52.268;20.944;2023-03-04T05:29:12;99685.52;;;3.39;64.03
44441;BME280;30146;52.268;20.944;2023-03-04T05:31:43;99682.33;;;3.41;64.06
44441;BME280;30146;52.268;20.944;2023-03-04T05:34:14;99680.31;;;3.42;64.03
44441;BME280;30146;52.268;20.944;2023-03-04T05:36:45;99684.38;;;3.42;63.93
44441;BME280;30146;52.268;20.944;2023-03-04T05:39:17;99682.52;;;3.43;64.08
44441;BME280;30146;52.268;20.944;2023-03-04T05:41:48;99681.69;;;3.43;64.31
44441;BME280;30146;52.268;20.944;2023-03-04T05:44:19;99688.80;;;3.44;64.29
44441;BME280;30146;52.268;20.944;2023-03-04T05:46:50;99690.48;;;3.45;64.07
44441;BME280;30146;52.268;20.944;2023-03-04T05:49:22;99685.41;;;3.45;64.21
44441;BME280;30146;52.268;20.944;2023-03-04T05:51:52;99679.84;;;3.46;64.08
44441;BME280;30146;52.268;20.944;2023-03-04T05:54:23;99678.66;;;3.47;64.19
44441;BME280;30146;52.268;20.944;2023-03-04T05:56:54;99676.99;;;3.49;64.26
44441;BME280;30146;52.268;20.944;2023-03-04T05:59:26;99677.66;;;3.49;64.30
44441;BME280;30146;52.268;20.944;2023-03-04T06:01:57;99673.27;;;3.48;64.12
44441;BME280;30146;52.268;20.944;2023-03-04T06:04:28;99667.17;;;3.47;64.08
44441;BME280;30146;52.268;20.944;2023-03-04T06:06:59;99662.92;;;3.44;63.93
44441;BME280;30146;52.268;20.944;2023-03-04T06:09:30;99667.48;;;3.43;64.07
44441;BME280;30146;52.268;20.944;2023-03-04T06:12:01;99660.55;;;3.41;64.01
44441;BME280;30146;52.268;20.944;2023-03-04T06:14:32;99659.19;;;3.41;63.99
44441;BME280;30146;52.268;20.944;2023-03-04T06:17:03;99654.63;;;3.41;64.08
44441;BME280;30146;52.268;20.944;2023-03-04T06:19:34;99649.55;;;3.40;64.12
44441;BME280;30146;52.268;20.944;2023-03-04T06:22:06;99652.57;;;3.38;63.78
44441;BME280;30146;52.268;20.944;2023-03-04T06:24:38;99652.38;;;3.35;64.15
44441;BME280;30146;52.268;20.944;2023-03-04T06:27:09;99651.16;;;3.32;63.94
44441;BME280;30146;52.268;20.944;2023-03-04T06:29:40;99652.69;;;3.33;64.22
44441;BME280;30146;52.268;20.944;2023-03-04T06:32:11;99653.38;;;3.33;64.16
44441;BME280;30146;52.268;20.944;2023-03-04T06:34:43;99644.58;;;3.32;64.17
44441;BME280;30146;52.268;20.944;2023-03-04T06:37:14;99644.75;;;3.33;64.41
44441;BME280;30146;52.268;20.944;2023-03-04T06:39:45;99640.85;;;3.30;63.98
44441;BME280;30146;52.268;20.944;2023-03-04T06:42:16;99644.20;;;3.26;64.21
44441;BME280;30146;52.268;20.944;2023-03-04T06:44:48;99648.06;;;3.25;64.10
44441;BME280;30146;52.268;20.944;2023-03-04T06:47:19;99648.39;;;3.24;64.20
44441;BME280;30146;52.268;20.944;2023-03-04T06:49:50;99644.34;;;3.23;64.47
44441;BME280;30146;52.268;20.944;2023-03-04T06:52:22;99647.20;;;3.22;64.48
44441;BME280;30146;52.268;20.944;2023-03-04T06:54:54;99645.65;;;3.20;64.24
44441;BME280;30146;52.268;20.944;2023-03-04T06:57:25;99642.28;;;3.20;64.21
44441;BME280;30146;52.268;20.944;2023-03-04T06:59:56;99647.88;;;3.22;64.36
44441;BME280;30146;52.268;20.944;2023-03-04T07:02:27;99645.88;;;3.25;64.88
44441;BME280;30146;52.268;20.944;2023-03-04T07:04:59;99648.42;;;3.27;64.72
44441;BME280;30146;52.268;20.944;2023-03-04T07:07:30;99647.92;;;3.28;64.40
44441;BME280;30146;52.268;20.944;2023-03-04T07:10:01;99656.88;;;3.28;64.75
44441;BME280;30146;52.268;20.944;2023-03-04T07:12:32;99649.45;;;3.28;64.75
44441;BME280;30146;52.268;20.944;2023-03-04T07:15:04;99647.27;;;3.30;64.66
44441;BME280;30146;52.268;20.944;2023-03-04T07:17:35;99651.00;;;3.32;64.97
44441;BME280;30146;52.268;20.944;2023-03-04T07:20:07;99649.85;;;3.35;64.98
44441;BME280;30146;52.268;20.944;2023-03-04T07:22:38;99646.80;;;3.35;64.66
44441;BME280;30146;52.268;20.944;2023-03-04T07:25:10;99646.30;;;3.34;64.31
44441;BME280;30146;52.268;20.944;2023-03-04T07:27:41;99645.27;;;3.33;64.56
44441;BME280;30146;52.268;20.944;2023-03-04T07:30:14;99643.60;;;3.36;64.80
44441;BME280;30146;52.268;20.944;2023-03-04T07:32:45;99641.25;;;3.39;64.74
44441;BME280;30146;52.268;20.944;2023-03-04T07:35:16;99644.48;;;3.41;64.53
44441;BME280;30146;52.268;20.944;2023-03-04T07:37:48;99638.92;;;3.42;64.62
44441;BME280;30146;52.268;20.944;2023-03-04T07:40:19;99638.25;;;3.43;64.77
44441;BME280;30146;52.268;20.944;2023-03-04T07:42:52;99632.52;;;3.45;64.40
44441;BME280;30146;52.268;20.944;2023-03-04T07:45:24;99632.35;;;3.46;64.53
44441;BME280;30146;52.268;20.944;2023-03-04T07:47:56;99632.70;;;3.47;64.47
44441;BME280;30146;52.268;20.944;2023-03-04T07:50:27;99627.81;;;3.48;64.49
44441;BME280;30146;52.268;20.944;2023-03-04T07:52:57;99625.13;;;3.50;64.56
44441;BME280;30146;52.268;20.944;2023-03-04T07:55:31;99620.23;;;3.51;64.81
44441;BME280;30146;52.268;20.944;2023-03-04T07:58:03;99618.05;;;3.53;64.62
44441;BME280;30146;52.268;20.944;2023-03-04T08:00:34;99617.20;;;3.51;64.37
44441;BME280;30146;52.268;20.944;2023-03-04T08:03:05;99616.02;;;3.50;64.40
44441;BME280;30146;52.268;20.944;2023-03-04T08:05:39;99614.14;;;3.48;64.10
44441;BME280;30146;52.268;20.944;2023-03-04T08:08:10;99610.42;;;3.48;64.52
44441;BME280;30146;52.268;20.944;2023-03-04T08:10:41;99613.63;;;3.49;64.31
44441;BME280;30146;52.268;20.944;2023-03-04T08:13:15;99607.21;;;3.50;64.42
44441;BME280;30146;52.268;20.944;2023-03-04T08:15:46;99607.05;;;3.49;64.13
44441;BME280;30146;52.268;20.944;2023-03-04T08:18:17;99603.48;;;3.47;64.28
44441;BME280;30146;52.268;20.944;2023-03-04T08:20:50;99603.15;;;3.48;64.05
44441;BME280;30146;52.268;20.944;2023-03-04T08:23:21;99604.67;;;3.49;64.39
44441;BME280;30146;52.268;20.944;2023-03-04T08:25:52;99601.79;;;3.48;64.21
44441;BME280;30146;52.268;20.944;2023-03-04T08:28:23;99597.75;;;3.49;64.38
44441;BME280;30146;52.268;20.944;2023-03-04T08:30:54;99606.55;;;3.53;64.78
44441;BME280;30146;52.268;20.944;2023-03-04T08:33:28;99602.34;;;3.55;64.37
44441;BME280;30146;52.268;20.944;2023-03-04T08:36:01;99600.52;;;3.57;64.56
44441;BME280;30146;52.268;20.944;2023-03-04T08:38:53;99600.67;;;3.57;64.18
44441;BME280;30146;52.268;20.944;2023-03-04T08:41:24;99598.48;;;3.56;64.25
44441;BME280;30146;52.268;20.944;2023-03-04T08:43:56;99600.00;;;3.57;64.06
44441;BME280;30146;52.268;20.944;2023-03-04T08:46:28;99599.35;;;3.58;64.26
44441;BME280;30146;52.268;20.944;2023-03-04T08:49:00;99594.61;;;3.59;64.04
44441;BME280;30146;52.268;20.944;2023-03-04T08:51:31;99595.13;;;3.61;64.04
44441;BME280;30146;52.268;20.944;2023-03-04T08:54:05;99598.01;;;3.63;64.22
44441;BME280;30146;52.268;20.944;2023-03-04T08:56:37;99592.27;;;3.63;64.16
44441;BME280;30146;52.268;20.944;2023-03-04T08:59:11;99599.38;;;3.65;64.35
44441;BME280;30146;52.268;20.944;2023-03-04T09:01:42;99594.16;;;3.66;63.79
44441;BME280;30146;52.268;20.944;2023-03-04T09:04:13;99584.20;;;3.69;64.01
44441;BME280;30146;52.268;20.944;2023-03-04T09:06:44;99584.05;;;3.74;64.06
44441;BME280;30146;52.268;20.944;2023-03-04T09:09:16;99574.11;;;3.79;64.27
44441;BME280;30146;52.268;20.944;2023-03-04T09:11:55;99581.07;;;3.84;64.44
44441;BME280;30146;52.268;20.944;2023-03-04T09:14:26;99574.50;;;3.88;64.22
44441;BME280;30146;52.268;20.944;2023-03-04T09:16:57;99570.80;;;3.91;64.13
44441;BME280;30146;52.268;20.944;2023-03-04T09:19:29;99565.05;;;3.93;64.01
44441;BME280;30146;52.268;20.944;2023-03-04T09:22:01;99562.02;;;3.96;63.91
44441;BME280;30146;52.268;20.944;2023-03-04T09:27:07;99565.78;;;4.02;63.90
44441;BME280;30146;52.268;20.944;2023-03-04T09:29:38;99567.30;;;4.04;63.81
44441;BME280;30146;52.268;20.944;2023-03-04T09:32:11;99569.18;;;4.09;63.96
44441;BME280;30146;52.268;20.944;2023-03-04T09:34:46;99566.31;;;4.10;63.99
44441;BME280;30146;52.268;20.944;2023-03-04T09:37:17;99562.95;;;4.13;63.63
44441;BME280;30146;52.268;20.944;2023-03-04T09:39:48;99565.33;;;4.16;63.70
44441;BME280;30146;52.268;20.944;2023-03-04T09:42:26;99558.23;;;4.19;63.64
44441;BME280;30146;52.268;20.944;2023-03-04T09:44:58;99557.56;;;4.21;63.81
44441;BME280;30146;52.268;20.944;2023-03-04T09:47:30;99554.86;;;4.22;63.92
44441;BME280;30146;52.268;20.944;2023-03-04T09:50:06;99554.34;;;4.20;63.72
44441;BME280;30146;52.268;20.944;2023-03-04T09:52:48;99556.71;;;4.20;63.81
44441;BME280;30146;52.268;20.944;2023-03-04T09:55:25;99549.62;;;4.20;63.82
44441;BME280;30146;52.268;20.944;2023-03-04T09:58:02;99546.23;;;4.23;63.64
44441;BME280;30146;52.268;20.944;2023-03-04T10:00:38;99547.60;;;4.24;63.66
44441;BME280;30146;52.268;20.944;2023-03-04T10:03:26;99539.98;;;4.26;63.83
44441;BME280;30146;52.268;20.944;2023-03-04T10:06:48;99539.65;;;4.25;63.58
44441;BME280;30146;52.268;20.944;2023-03-04T10:09:31;99539.48;;;4.26;63.66
44441;BME280;30146;52.268;20.944;2023-03-04T10:12:15;99532.21;;;4.25;63.87
44441;BME280;30146;52.268;20.944;2023-03-04T10:14:53;99533.05;;;4.26;63.54
44441;BME280;30146;52.268;20.944;2023-03-04T10:17:34;99527.63;;;4.22;63.51
44441;BME280;30146;52.268;20.944;2023-03-04T10:20:14;99522.05;;;4.23;63.33
44441;BME280;30146;52.268;20.944;2023-03-04T10:23:01;99519.02;;;4.25;63.52
44441;BME280;30146;52.268;20.944;2023-03-04T10:25:44;99517.67;;;4.28;63.80
44441;BME280;30146;52.268;20.944;2023-03-04T10:28:29;99519.35;;;4.30;63.69
44441;BME280;30146;52.268;20.944;2023-03-04T10:31:05;99511.40;;;4.32;63.47
44441;BME280;30146;52.268;20.944;2023-03-04T10:33:40;99509.72;;;4.33;63.58
44441;BME280;30146;52.268;20.944;2023-03-04T10:36:29;99506.18;;;4.35;63.49
44441;BME280;30146;52.268;20.944;2023-03-04T10:39:08;99503.82;;;4.38;63.73
44441;BME280;30146;52.268;20.944;2023-03-04T10:41:45;99498.40;;;4.44;63.92
44441;BME280;30146;52.268;20.944;2023-03-04T10:44:24;99501.30;;;4.49;63.91
44441;BME280;30146;52.268;20.944;2023-03-04T10:46:56;99496.40;;;4.49;63.67
44441;BME280;30146;52.268;20.944;2023-03-04T10:49:31;99491.48;;;4.47;63.82
44441;BME280;30146;52.268;20.944;2023-03-04T10:52:12;99489.11;;;4.46;63.71
44441;BME280;30146;52.268;20.944;2023-03-04T10:54:52;99483.18;;;4.45;64.04
44441;BME280;30146;52.268;20.944;2023-03-04T10:57:32;99485.55;;;4.47;64.08
44441;BME280;30146;52.268;20.944;2023-03-04T11:00:25;99483.86;;;4.48;64.23
44441;BME280;30146;52.268;20.944;2023-03-04T11:06:17;99479.80;;;4.50;64.61
44441;BME280;30146;52.268;20.944;2023-03-04T11:09:02;99480.16;;;4.51;64.40
44441;BME280;30146;52.268;20.944;2023-03-04T11:11:44;99476.09;;;4.50;64.32
44441;BME280;30146;52.268;20.944;2023-03-04T11:14:26;99470.84;;;4.50;64.50
44441;BME280;30146;52.268;20.944;2023-03-04T11:17:19;99474.40;;;4.51;64.67
44441;BME280;30146;52.268;20.944;2023-03-04T11:19:55;99474.21;;;4.52;64.90
44441;BME280;30146;52.268;20.944;2023-03-04T11:22:29;99474.39;;;4.52;64.80
44441;BME280;30146;52.268;20.944;2023-03-04T11:25:04;99473.20;;;4.52;64.92
44441;BME280;30146;52.268;20.944;2023-03-04T11:27:41;99468.98;;;4.54;65.09
44441;BME280;30146;52.268;20.944;2023-03-04T11:30:31;99465.93;;;4.53;65.07
44441;BME280;30146;52.268;20.944;2023-03-04T11:33:11;99460.86;;;4.55;65.25
44441;BME280;30146;52.268;20.944;2023-03-04T11:35:52;99462.38;;;4.56;65.29
44441;BME280;30146;52.268;20.944;2023-03-04T11:38:32;99457.48;;;4.57;65.55
44441;BME280;30146;52.268;20.944;2023-03-04T11:41:11;99459.01;;;4.58;65.42
44441;BME280;30146;52.268;20.944;2023-03-04T11:43:47;99455.62;;;4.60;65.68
44441;BME280;30146;52.268;20.944;2023-03-04T11:46:43;99456.63;;;4.62;65.62
44441;BME280;30146;52.268;20.944;2023-03-04T11:52:51;99452.57;;;4.64;65.51
44441;BME280;30146;52.268;20.944;2023-03-04T11:55:41;99453.59;;;4.63;65.59
44441;BME280;30146;52.268;20.944;2023-03-04T11:58:40;99455.61;;;4.66;65.92
44441;BME280;30146;52.268;20.944;2023-03-04T12:04:36;99456.80;;;4.67;65.55
44441;BME280;30146;52.268;20.944;2023-03-04T12:07:19;99458.84;;;4.67;65.67
44441;BME280;30146;52.268;20.944;2023-03-04T12:10:00;99459.02;;;4.71;65.71
44441;BME280;30146;52.268;20.944;2023-03-04T12:12:45;99462.55;;;4.73;65.71
44441;BME280;30146;52.268;20.944;2023-03-04T12:15:30;99458.48;;;4.77;66.29
44441;BME280;30146;52.268;20.944;2023-03-04T12:18:20;99459.00;;;4.80;66.00
44441;BME280;30146;52.268;20.944;2023-03-04T12:21:36;99462.90;;;4.80;65.97
44441;BME280;30146;52.268;20.944;2023-03-04T12:24:32;99462.22;;;4.79;65.76
44441;BME280;30146;52.268;20.944;2023-03-04T12:27:13;99460.02;;;4.78;65.98
44441;BME280;30146;52.268;20.944;2023-03-04T12:29:49;99462.55;;;4.79;65.97
44441;BME280;30146;52.268;20.944;2023-03-04T12:32:32;99460.02;;;4.83;66.00
44441;BME280;30146;52.268;20.944;2023-03-04T12:35:18;99456.80;;;4.90;66.02
44441;BME280;30146;52.268;20.944;2023-03-04T12:38:01;99453.56;;;4.97;66.05
44441;BME280;30146;52.268;20.944;2023-03-04T12:40:40;99447.13;;;5.07;66.31
44441;BME280;30146;52.268;20.944;2023-03-04T12:43:26;99450.83;;;5.18;66.47
44441;BME280;30146;52.268;20.944;2023-03-04T12:46:15;99442.16;;;5.31;66.41
44441;BME280;30146;52.268;20.944;2023-03-04T12:49:16;99444.16;;;5.45;66.28
44441;BME280;30146;52.268;20.944;2023-03-04T12:51:56;99446.66;;;5.56;66.02
44441;BME280;30146;52.268;20.944;2023-03-04T12:54:32;99446.13;;;5.66;66.07
44441;BME280;30146;52.268;20.944;2023-03-04T12:57:08;99444.55;;;5.75;65.99
44441;BME280;30146;52.268;20.944;2023-03-04T12:59:46;99446.54;;;5.85;66.03
44441;BME280;30146;52.268;20.944;2023-03-04T13:02:31;99438.89;;;5.89;65.61
44441;BME280;30146;52.268;20.944;2023-03-04T13:05:30;99433.13;;;5.91;65.31
44441;BME280;30146;52.268;20.944;2023-03-04T13:08:17;99434.80;;;5.94;65.13
44441;BME280;30146;52.268;20.944;2023-03-04T13:10:52;99433.63;;;5.98;65.20
44441;BME280;30146;52.268;20.944;2023-03-04T13:13:49;99430.16;;;6.08;65.18
44441;BME280;30146;52.268;20.944;2023-03-04T13:16:31;99422.63;;;6.22;65.25
44441;BME280;30146;52.268;20.944;2023-03-04T13:22:43;99424.77;;;6.53;65.29
44441;BME280;30146;52.268;20.944;2023-03-04T13:25:41;99430.25;;;6.68;65.01
44441;BME280;30146;52.268;20.944;2023-03-04T13:28:25;99429.45;;;6.83;64.90
44441;BME280;30146;52.268;20.944;2023-03-04T13:31:16;99420.89;;;6.90;64.44
44441;BME280;30146;52.268;20.944;2023-03-04T13:33:52;99431.09;;;6.90;64.04
44441;BME280;30146;52.268;20.944;2023-03-04T13:39:33;99485.80;;;6.68;62.61
44441;BME280;30146;52.268;20.944;2023-03-04T13:42:38;99487.01;;;6.39;62.11
44441;BME280;30146;52.268;20.944;2023-03-04T13:45:35;99482.95;;;6.02;61.88
44441;BME280;30146;52.268;20.944;2023-03-04T13:48:23;99477.98;;;5.68;61.60
44441;BME280;30146;52.268;20.944;2023-03-04T13:50:57;99472.99;;;5.38;61.83
44441;BME280;30146;52.268;20.944;2023-03-04T13:53:37;99458.63;;;5.16;62.16
44441;BME280;30146;52.268;20.944;2023-03-04T13:56:31;99446.80;;;4.98;62.41
44441;BME280;30146;52.268;20.944;2023-03-04T13:59:27;99436.15;;;4.83;62.51
44441;BME280;30146;52.268;20.944;2023-03-04T14:02:02;99432.59;;;4.74;63.03